Time;durP1;ratioP1;P1;durP2;ratioP2;P2;SDS_P1;SDS_P2;PMS_P1;PMS_P2;Temp;Humidity;BMP_temperature;BMP_pressure;BME280_temperature;BME280_humidity;BME280_pressure;Samples;Min_cycle;Max_cycle;Signal;HPM_P1;HPM_P2
2021/01/17 00:02:04;;;;;;;16.13;12.20;;;1.40;97.40;;;;;;10364003;28;20211;-79
2021/01/17 00:07:06;;;;;;;17.77;14.00;;;1.30;97.60;;;;;;10331904;28;20238;-80
2021/01/17 00:12:10;;;;;;;16.90;14.80;;;1.20;97.80;;;;;;10367756;28;20217;-80
2021/01/17 00:17:11;;;;;;;15.97;13.90;;;1.20;98.20;;;;;;10366994;28;20325;-80
2021/01/17 00:22:14;;;;;;;18.00;14.37;;;1.10;98.60;;;;;;10369502;28;20206;-80
2021/01/17 00:27:16;;;;;;;18.27;14.00;;;1.10;98.70;;;;;;10382324;28;20233;-79
2021/01/17 00:32:17;;;;;;;17.67;14.00;;;1.10;99.10;;;;;;10364627;28;20206;-80
2021/01/17 00:37:20;;;;;;;17.77;14.60;;;1.00;99.10;;;;;;10367462;28;20240;-80
2021/01/17 00:42:22;;;;;;;15.80;13.27;;;1.00;99.40;;;;;;10349526;28;20289;-81
2021/01/17 00:47:24;;;;;;;17.67;13.80;;;1.00;99.30;;;;;;10364916;28;20778;-80
2021/01/17 00:52:26;;;;;;;15.40;13.40;;;1.00;99.70;;;;;;10349212;28;20203;-80
2021/01/17 00:57:29;;;;;;;17.30;14.03;;;1.10;99.90;;;;;;10374722;28;20564;-81
2021/01/17 01:02:31;;;;;;;20.17;15.20;;;1.10;99.70;;;;;;10334174;28;20293;-79
2021/01/17 01:07:34;;;;;;;16.33;14.30;;;1.10;99.60;;;;;;10364802;28;20686;-79
2021/01/17 01:12:36;;;;;;;18.63;14.53;;;1.10;99.90;;;;;;10365215;28;20728;-80
2021/01/17 01:17:38;;;;;;;16.93;15.13;;;1.10;99.90;;;;;;10369641;28;20238;-79
2021/01/17 01:22:41;;;;;;;22.40;17.00;;;1.10;99.90;;;;;;10354145;28;20205;-81
2021/01/17 01:27:46;;;;;;;19.83;16.37;;;1.20;99.90;;;;;;10363744;28;20226;-80
2021/01/17 01:32:50;;;;;;;17.70;15.37;;;1.10;99.90;;;;;;10371519;28;20993;-80
2021/01/17 01:37:53;;;;;;;19.53;16.60;;;1.10;99.90;;;;;;10377888;28;20245;-80
2021/01/17 01:42:57;;;;;;;16.67;14.47;;;1.00;99.90;;;;;;10368132;28;20241;-80
2021/01/17 01:47:59;;;;;;;18.67;16.67;;;1.00;99.70;;;;;;10371022;28;20226;-81
2021/01/17 01:53:02;;;;;;;17.23;15.37;;;0.90;99.90;;;;;;10371212;28;20268;-80
2021/01/17 01:58:06;;;;;;;19.70;16.60;;;0.90;99.90;;;;;;10372861;28;20237;-80
2021/01/17 02:03:07;;;;;;;20.67;16.80;;;0.90;99.90;;;;;;10363191;28;20208;-80
2021/01/17 02:08:42;;;;;;;18.87;16.47;;;0.90;99.90;;;;;;10352185;28;20258;-80
2021/01/17 02:13:49;;;;;;;19.70;16.80;;;0.90;99.90;;;;;;10347062;28;20222;-80
2021/01/17 02:18:53;;;;;;;18.33;14.97;;;0.90;99.90;;;;;;10371454;28;20786;-80
2021/01/17 02:24:03;;;;;;;18.80;16.30;;;0.90;99.90;;;;;;10356456;28;20207;-81
2021/01/17 02:29:08;;;;;;;21.90;17.10;;;0.90;99.90;;;;;;10370464;28;20234;-80
2021/01/17 02:34:10;;;;;;;20.03;17.23;;;0.90;99.90;;;;;;10358770;28;20223;-80
2021/01/17 02:39:16;;;;;;;20.80;16.87;;;1.00;99.90;;;;;;10368314;28;20242;-79
2021/01/17 02:44:20;;;;;;;20.37;16.80;;;1.00;99.90;;;;;;10333040;28;20266;-80
2021/01/17 02:49:22;;;;;;;21.30;17.73;;;1.10;99.90;;;;;;10355611;28;20226;-80
2021/01/17 02:54:30;;;;;;;20.77;18.47;;;1.10;99.90;;;;;;10377186;28;20224;-80
2021/01/17 02:59:37;;;;;;;21.10;16.63;;;1.10;99.90;;;;;;10378538;28;20895;-81
2021/01/17 03:04:43;;;;;;;21.27;16.70;;;1.10;99.90;;;;;;10378367;28;20697;-80
2021/01/17 03:09:45;;;;;;;22.70;17.53;;;1.10;99.90;;;;;;10376626;28;20698;-80
2021/01/17 03:14:51;;;;;;;21.10;17.47;;;1.10;99.90;;;;;;10359009;28;20297;-81
2021/01/17 03:19:52;;;;;;;19.47;16.77;;;1.10;99.90;;;;;;10353319;28;20230;-81
2021/01/17 03:24:54;;;;;;;20.07;17.33;;;1.10;99.90;;;;;;10382768;28;20286;-79
2021/01/17 03:29:57;;;;;;;21.00;17.73;;;1.10;99.90;;;;;;10373423;28;20905;-81
2021/01/17 03:34:59;;;;;;;19.60;17.20;;;1.20;99.90;;;;;;10371079;28;20258;-80
2021/01/17 03:40:00;;;;;;;18.23;16.23;;;1.20;99.90;;;;;;10355145;28;20206;-80
2021/01/17 03:45:04;;;;;;;20.37;18.00;;;1.10;99.90;;;;;;10355235;28;20276;-80
2021/01/17 03:50:06;;;;;;;22.43;18.70;;;1.10;99.90;;;;;;10354825;28;20253;-79
2021/01/17 03:55:09;;;;;;;20.70;16.90;;;1.10;99.90;;;;;;10378286;28;20709;-80
2021/01/17 04:00:13;;;;;;;22.93;18.03;;;1.10;99.90;;;;;;10377984;28;20282;-81
2021/01/17 04:05:15;;;;;;;22.70;17.70;;;1.10;99.90;;;;;;10370955;28;20680;-80
2021/01/17 04:10:17;;;;;;;20.67;17.80;;;1.00;99.90;;;;;;10358064;28;20208;-80
2021/01/17 04:15:19;;;;;;;25.53;19.53;;;1.00;99.90;;;;;;10356491;28;20219;-80
2021/01/17 04:20:21;;;;;;;21.43;18.57;;;1.00;99.90;;;;;;10376391;28;20209;-81
2021/01/17 04:25:22;;;;;;;24.00;19.33;;;1.00;99.90;;;;;;10359000;28;20276;-81
2021/01/17 04:30:30;;;;;;;21.87;18.40;;;1.00;99.90;;;;;;10379646;28;20214;-81
2021/01/17 04:35:31;;;;;;;23.47;19.57;;;1.00;99.90;;;;;;10356823;28;20288;-81
2021/01/17 04:40:33;;;;;;;21.33;19.00;;;1.00;99.90;;;;;;10356047;28;20229;-81
2021/01/17 04:45:36;;;;;;;23.93;20.10;;;1.00;99.90;;;;;;10375353;28;20222;-81
2021/01/17 04:50:39;;;;;;;25.50;20.07;;;1.00;99.90;;;;;;10371603;28;20198;-81
2021/01/17 04:55:41;;;;;;;26.27;20.60;;;1.00;99.90;;;;;;10374718;28;20570;-81
2021/01/17 05:00:52;;;;;;;25.00;20.20;;;1.00;99.90;;;;;;10341989;28;20206;-81
2021/01/17 05:13:08;;;;;;;23.90;19.60;;;1.00;99.90;;;;;;10340990;28;20195;-82
2021/01/17 05:18:11;;;;;;;23.87;19.67;;;1.10;99.90;;;;;;10347294;28;20252;-83
2021/01/17 05:23:14;;;;;;;24.50;19.60;;;1.10;99.90;;;;;;10347177;28;20203;-83
2021/01/17 05:28:16;;;;;;;24.20;20.10;;;1.20;99.90;;;;;;10351686;28;20258;-83
2021/01/17 05:33:25;;;;;;;21.83;19.10;;;1.20;99.90;;;;;;10328344;28;20211;-82
2021/01/17 05:38:27;;;;;;;26.57;21.40;;;1.20;99.90;;;;;;10361727;28;20256;-83
2021/01/17 05:43:29;;;;;;;22.17;17.93;;;1.20;99.90;;;;;;10329756;28;20199;-83
2021/01/17 05:48:31;;;;;;;22.73;19.77;;;1.30;99.90;;;;;;10365357;28;20214;-83
2021/01/17 05:53:33;;;;;;;21.20;18.27;;;1.30;99.90;;;;;;10324397;28;20243;-83
2021/01/17 05:58:43;;;;;;;26.27;19.40;;;1.30;99.90;;;;;;10327908;28;20219;-83
2021/01/17 06:03:53;;;;;;;23.60;20.50;;;1.40;99.90;;;;;;10350609;28;20195;-82
2021/01/17 06:08:58;;;;;;;25.07;21.50;;;1.40;99.90;;;;;;10353686;28;20231;-82
2021/01/17 06:14:01;;;;;;;25.97;21.07;;;1.40;99.90;;;;;;10334727;28;20218;-83
2021/01/17 06:19:06;;;;;;;28.70;21.57;;;1.30;99.90;;;;;;10356750;28;20250;-82
2021/01/17 06:24:09;;;;;;;28.90;22.73;;;1.30;99.90;;;;;;10367059;28;20242;-83
2021/01/17 06:29:11;;;;;;;29.00;21.30;;;1.30;99.90;;;;;;10375522;28;20226;-82
2021/01/17 06:34:15;;;;;;;26.83;22.20;;;1.30;99.90;;;;;;10329184;28;20216;-83
2021/01/17 06:39:20;;;;;;;23.87;19.97;;;1.30;99.90;;;;;;10329554;28;20725;-82
2021/01/17 06:44:28;;;;;;;27.90;22.30;;;1.30;99.90;;;;;;10348724;28;20270;-83
2021/01/17 06:49:32;;;;;;;26.77;20.80;;;1.30;99.90;;;;;;10355735;28;20828;-83
2021/01/17 06:54:35;;;;;;;25.43;21.13;;;1.30;99.90;;;;;;10367752;28;20219;-82
2021/01/17 06:59:38;;;;;;;23.57;20.47;;;1.40;99.90;;;;;;10384922;28;20277;-83
2021/01/17 07:04:42;;;;;;;27.70;21.80;;;1.40;99.90;;;;;;10386755;28;20552;-83
2021/01/17 07:09:51;;;;;;;28.93;22.60;;;1.40;99.90;;;;;;10386562;28;20296;-83
2021/01/17 07:15:04;;;;;;;25.33;21.27;;;1.40;99.90;;;;;;10382824;28;20222;-83
2021/01/17 07:20:10;;;;;;;25.93;21.13;;;1.40;99.90;;;;;;10363474;28;20238;-82
2021/01/17 07:25:12;;;;;;;26.47;21.53;;;1.40;99.90;;;;;;10373922;28;20294;-82
2021/01/17 07:30:20;;;;;;;31.27;23.57;;;1.40;99.90;;;;;;10378359;28;20573;-83
2021/01/17 07:35:25;;;;;;;27.80;22.13;;;1.40;99.90;;;;;;10343193;28;20218;-83
2021/01/17 07:40:50;;;;;;;30.13;23.07;;;1.40;99.90;;;;;;10381309;28;20210;-83
2021/01/17 07:45:53;;;;;;;32.87;24.50;;;1.50;99.90;;;;;;10385349;28;20227;-83
2021/01/17 07:50:57;;;;;;;29.50;24.00;;;1.50;99.90;;;;;;10383420;28;20546;-82
2021/01/17 07:56:03;;;;;;;27.97;22.33;;;1.50;99.90;;;;;;10351987;28;20632;-83
2021/01/17 08:01:05;;;;;;;29.40;24.27;;;1.50;99.90;;;;;;10358951;28;20215;-82
2021/01/17 08:06:07;;;;;;;30.40;24.10;;;1.60;99.90;;;;;;10343598;28;20321;-82
2021/01/17 08:11:09;;;;;;;32.13;24.30;;;1.60;99.90;;;;;;10375085;28;20297;-83
2021/01/17 08:16:12;;;;;;;29.23;22.37;;;1.60;99.90;;;;;;10377669;28;20233;-83
2021/01/17 08:21:30;;;;;;;29.73;23.47;;;1.70;99.90;;;;;;10359334;28;20276;-83
2021/01/17 08:26:59;;;;;;;27.70;23.00;;;1.70;99.90;;;;;;10375334;28;20225;-83
2021/01/17 08:32:01;;;;;;;29.20;22.70;;;1.80;99.90;;;;;;10379676;28;20294;-83
2021/01/17 08:37:16;;;;;;;25.90;22.07;;;1.90;99.90;;;;;;10360865;28;20230;-83
2021/01/17 08:42:32;;;;;;;26.93;21.10;;;1.90;99.90;;;;;;10377488;28;20733;-83
2021/01/17 08:47:36;;;;;;;26.90;21.20;;;2.00;99.90;;;;;;10403378;28;20221;-83
2021/01/17 08:52:39;;;;;;;27.43;21.67;;;2.00;99.90;;;;;;10372901;28;20209;-83
2021/01/17 08:57:43;;;;;;;28.10;22.00;;;2.10;99.90;;;;;;10365535;28;20250;-83
2021/01/17 09:02:45;;;;;;;30.60;23.63;;;2.10;99.90;;;;;;10345916;28;20275;-83
2021/01/17 09:07:48;;;;;;;28.00;23.60;;;2.10;99.90;;;;;;10381736;28;20230;-83
2021/01/17 09:12:58;;;;;;;28.10;22.70;;;2.20;99.90;;;;;;10404284;28;20623;-83
2021/01/17 09:18:01;;;;;;;26.93;23.63;;;2.20;99.90;;;;;;10402184;28;20682;-84
2021/01/17 09:23:04;;;;;;;29.27;25.30;;;2.20;99.90;;;;;;10387787;28;20758;-83
2021/01/17 09:28:06;;;;;;;27.70;23.07;;;2.30;99.90;;;;;;10383820;28;20225;-83
2021/01/17 09:33:10;;;;;;;31.13;24.00;;;2.40;99.90;;;;;;10439307;28;20206;-83
2021/01/17 09:38:14;;;;;;;28.07;22.63;;;2.50;99.90;;;;;;10410695;28;20586;-84
2021/01/17 09:43:16;;;;;;;25.30;21.90;;;2.60;99.90;;;;;;10432463;28;20214;-83
2021/01/17 09:48:18;;;;;;;25.20;20.80;;;2.60;99.90;;;;;;10435557;28;20321;-83
2021/01/17 09:53:21;;;;;;;26.80;21.97;;;2.70;99.90;;;;;;10392660;28;20256;-83
2021/01/17 09:58:23;;;;;;;24.90;20.90;;;2.80;99.90;;;;;;10412541;28;20233;-83
2021/01/17 10:03:36;;;;;;;26.67;22.43;;;2.90;99.90;;;;;;10391358;28;20213;-83
2021/01/17 10:08:39;;;;;;;24.40;20.87;;;3.00;99.90;;;;;;10406970;28;20222;-83
2021/01/17 10:13:47;;;;;;;23.43;20.90;;;3.10;99.90;;;;;;10402668;28;20205;-84
2021/01/17 10:18:50;;;;;;;24.10;19.40;;;3.10;99.90;;;;;;10401547;28;20280;-84
2021/01/17 10:23:52;;;;;;;21.00;17.57;;;3.10;99.90;;;;;;10386449;28;20288;-84
2021/01/17 10:28:55;;;;;;;22.70;19.00;;;3.20;99.90;;;;;;10402144;28;20218;-83
2021/01/17 10:33:57;;;;;;;21.37;18.57;;;3.30;99.90;;;;;;10402864;28;20256;-84
2021/01/17 10:38:59;;;;;;;22.23;19.30;;;3.30;99.90;;;;;;10387699;28;20256;-84
2021/01/17 10:44:08;;;;;;;23.10;18.67;;;3.40;99.90;;;;;;10413963;28;20268;-83
2021/01/17 10:49:21;;;;;;;20.90;18.00;;;3.50;99.90;;;;;;10400067;28;20226;-83
2021/01/17 10:54:25;;;;;;;25.50;19.83;;;3.50;99.90;;;;;;10388659;28;20604;-83
2021/01/17 10:59:28;;;;;;;24.87;21.60;;;3.50;99.90;;;;;;10390633;28;20229;-84
2021/01/17 11:04:39;;;;;;;24.70;18.70;;;3.60;99.90;;;;;;10409531;28;20190;-83
2021/01/17 11:09:41;;;;;;;24.83;19.57;;;3.60;99.90;;;;;;10409316;28;20240;-83
2021/01/17 11:14:43;;;;;;;21.33;18.50;;;3.60;99.90;;;;;;10395231;28;20304;-83
2021/01/17 11:19:45;;;;;;;23.60;20.80;;;3.60;99.90;;;;;;10385302;28;20308;-83
2021/01/17 11:24:47;;;;;;;19.50;16.87;;;3.70;99.90;;;;;;10376883;28;20570;-83
2021/01/17 11:29:56;;;;;;;20.53;17.60;;;3.80;99.90;;;;;;10426080;28;20244;-83
2021/01/17 11:34:58;;;;;;;17.97;16.07;;;3.80;99.90;;;;;;10405992;28;20234;-83
2021/01/17 11:40:10;;;;;;;18.23;16.37;;;3.80;99.90;;;;;;10385831;28;20250;-83
2021/01/17 11:45:18;;;;;;;23.30;19.70;;;3.70;99.90;;;;;;10408165;28;20234;-84
2021/01/17 11:50:22;;;;;;;23.87;21.27;;;3.70;99.90;;;;;;10386816;28;20627;-83
2021/01/17 11:55:24;;;;;;;25.23;20.80;;;3.60;99.90;;;;;;10408248;28;20214;-84
2021/01/17 12:00:26;;;;;;;31.77;25.80;;;3.60;99.90;;;;;;10430163;28;20236;-83
2021/01/17 12:05:29;;;;;;;36.00;28.77;;;3.70;99.90;;;;;;10415707;28;20202;-84
2021/01/17 12:10:32;;;;;;;32.30;24.90;;;3.60;99.90;;;;;;10347615;28;20238;-83
2021/01/17 12:15:34;;;;;;;27.00;23.77;;;3.70;99.90;;;;;;10345503;28;20245;-83
2021/01/17 12:20:36;;;;;;;30.63;25.50;;;3.70;99.90;;;;;;10313769;28;20203;-84
2021/01/17 12:25:38;;;;;;;26.40;21.70;;;3.70;99.90;;;;;;10319050;28;20723;-83
2021/01/17 12:30:40;;;;;;;25.10;21.80;;;3.70;99.90;;;;;;10327213;28;20290;-84
2021/01/17 12:35:47;;;;;;;21.63;19.30;;;3.70;99.90;;;;;;10332557;28;20262;-84
2021/01/17 12:40:56;;;;;;;23.97;21.03;;;3.70;99.90;;;;;;10352922;28;20208;-84
2021/01/17 12:45:57;;;;;;;23.57;20.80;;;3.70;99.90;;;;;;10328901;28;20269;-83
2021/01/17 12:50:59;;;;;;;21.37;19.10;;;3.70;99.90;;;;;;10347562;28;20203;-83
2021/01/17 12:56:02;;;;;;;19.73;17.60;;;3.70;99.90;;;;;;10315554;28;20791;-84
2021/01/17 13:01:04;;;;;;;21.80;19.50;;;3.70;99.90;;;;;;10350419;28;20231;-84
2021/01/17 13:06:06;;;;;;;20.90;18.00;;;3.70;99.90;;;;;;10312269;28;20230;-84
2021/01/17 13:11:10;;;;;;;22.53;18.90;;;3.70;99.90;;;;;;10376608;28;20203;-83
2021/01/17 13:16:13;;;;;;;20.90;16.67;;;3.70;99.90;;;;;;10344146;28;20605;-85
2021/01/17 13:21:16;;;;;;;21.93;18.90;;;3.70;99.90;;;;;;10331809;28;20215;-84
2021/01/17 13:26:19;;;;;;;20.70;17.70;;;3.70;99.90;;;;;;10350349;28;20227;-84
2021/01/17 13:31:25;;;;;;;20.00;17.90;;;3.80;99.90;;;;;;10341547;28;20206;-84
2021/01/17 13:36:27;;;;;;;19.27;17.30;;;3.80;99.90;;;;;;10342716;28;20223;-84
2021/01/17 13:41:30;;;;;;;18.50;16.50;;;3.80;99.90;;;;;;10344807;28;20211;-83
2021/01/17 13:46:32;;;;;;;19.23;17.03;;;3.70;99.90;;;;;;10344313;28;20648;-84
2021/01/17 13:51:34;;;;;;;18.27;16.37;;;3.70;99.90;;;;;;10362559;28;20575;-84
2021/01/17 13:56:37;;;;;;;18.40;16.67;;;3.70;99.90;;;;;;10360320;28;20312;-85
2021/01/17 14:01:39;;;;;;;18.73;16.73;;;3.80;99.90;;;;;;10360375;28;20662;-84
2021/01/17 14:06:41;;;;;;;16.77;14.97;;;3.80;99.90;;;;;;10327425;28;20646;-84
2021/01/17 14:11:44;;;;;;;16.63;14.83;;;3.80;99.90;;;;;;10332272;28;20210;-85
2021/01/17 14:16:46;;;;;;;17.40;14.67;;;3.90;99.90;;;;;;10363672;28;20246;-85
2021/01/17 14:21:48;;;;;;;15.00;13.60;;;3.90;99.90;;;;;;10346061;28;20203;-85
2021/01/17 14:26:50;;;;;;;17.10;15.30;;;3.90;99.90;;;;;;10358781;28;20234;-85
2021/01/17 14:31:52;;;;;;;16.10;14.50;;;3.90;99.90;;;;;;10342428;28;20206;-85
2021/01/17 14:36:54;;;;;;;17.50;15.70;;;3.90;99.90;;;;;;10376709;28;20229;-84
2021/01/17 14:41:57;;;;;;;15.93;14.33;;;3.90;99.90;;;;;;10374341;28;20584;-83
2021/01/17 14:46:59;;;;;;;16.13;14.53;;;3.80;99.90;;;;;;10373300;28;20226;-84
2021/01/17 14:52:01;;;;;;;16.77;15.17;;;3.80;99.90;;;;;;10365080;28;20298;-85
2021/01/17 14:57:03;;;;;;;17.60;15.87;;;3.80;99.90;;;;;;10368972;28;20325;-83
2021/01/17 15:02:05;;;;;;;17.70;16.00;;;3.80;99.90;;;;;;10352974;28;20203;-85
2021/01/17 15:07:07;;;;;;;15.57;14.07;;;3.80;99.90;;;;;;10372313;28;20225;-84
2021/01/17 15:12:10;;;;;;;18.27;16.57;;;3.70;99.90;;;;;;10373375;28;20308;-84
2021/01/17 15:17:11;;;;;;;17.33;15.63;;;3.70;99.90;;;;;;10402374;28;20229;-84
2021/01/17 15:22:13;;;;;;;18.93;16.97;;;3.70;99.90;;;;;;10363473;28;20222;-86
2021/01/17 15:27:18;;;;;;;18.10;16.20;;;3.70;99.90;;;;;;10350011;28;20240;-84
2021/01/17 15:32:20;;;;;;;18.63;16.73;;;3.70;99.90;;;;;;10363101;28;20218;-85
2021/01/17 15:37:22;;;;;;;28.73;26.17;;;3.60;99.90;;;;;;10335047;28;20236;-84
2021/01/17 15:42:28;;;;;;;19.80;17.77;;;3.70;99.90;;;;;;10371781;28;20227;-82
2021/01/17 15:47:30;;;;;;;22.53;20.03;;;3.70;99.90;;;;;;10356409;28;20222;-84
2021/01/17 15:52:32;;;;;;;21.13;19.03;;;3.70;99.90;;;;;;10336308;28;20241;-84
2021/01/17 15:57:36;;;;;;;22.53;19.77;;;3.70;99.90;;;;;;10349296;28;20233;-84
2021/01/17 16:02:38;;;;;;;19.97;18.07;;;3.70;99.90;;;;;;10348803;28;20206;-84
2021/01/17 16:07:39;;;;;;;18.87;16.90;;;3.70;99.90;;;;;;10354917;28;20261;-84
2021/01/17 16:12:42;;;;;;;22.30;19.90;;;3.70;99.90;;;;;;10333237;28;20202;-84
2021/01/17 16:17:44;;;;;;;21.10;19.00;;;3.70;99.90;;;;;;10357458;28;20233;-84
2021/01/17 16:22:46;;;;;;;22.67;20.37;;;3.70;99.90;;;;;;10367239;28;20205;-86
2021/01/17 16:27:50;;;;;;;22.20;20.00;;;3.70;99.90;;;;;;10344703;28;20219;-84
2021/01/17 16:32:52;;;;;;;25.90;22.23;;;3.70;99.90;;;;;;10349111;28;20207;-84
2021/01/17 16:37:54;;;;;;;23.60;21.10;;;3.70;99.90;;;;;;10377846;28;20369;-84
2021/01/17 16:42:56;;;;;;;19.90;17.80;;;3.70;99.90;;;;;;10380212;28;20197;-84
2021/01/17 16:47:58;;;;;;;21.47;19.40;;;3.70;99.90;;;;;;10417310;28;20210;-84
2021/01/17 16:53:00;;;;;;;20.07;18.03;;;3.70;99.90;;;;;;10360143;28;20210;-83
2021/01/17 16:58:03;;;;;;;19.40;17.47;;;3.70;99.90;;;;;;10376642;28;20221;-84
2021/01/17 17:03:04;;;;;;;19.67;17.70;;;3.70;99.90;;;;;;10359991;28;20214;-86
2021/01/17 17:08:06;;;;;;;20.17;18.10;;;3.70;99.90;;;;;;10398533;28;20242;-85
2021/01/17 17:13:09;;;;;;;20.97;18.83;;;3.80;99.90;;;;;;10404630;28;20202;-83
2021/01/17 17:18:10;;;;;;;17.27;15.57;;;3.80;99.90;;;;;;10412005;28;20242;-83
2021/01/17 17:23:13;;;;;;;19.10;17.13;;;3.70;99.90;;;;;;10366344;28;20257;-83
2021/01/17 17:28:17;;;;;;;19.67;17.67;;;3.80;99.90;;;;;;10345324;28;20223;-83
2021/01/17 17:33:19;;;;;;;24.43;21.90;;;3.80;99.90;;;;;;10380494;28;20577;-83
2021/01/17 17:38:21;;;;;;;23.20;20.70;;;3.80;99.90;;;;;;10375955;28;20230;-83
2021/01/17 17:43:23;;;;;;;21.87;19.50;;;3.90;99.90;;;;;;10359598;28;20203;-85
2021/01/17 17:48:25;;;;;;;21.13;19.00;;;3.80;99.90;;;;;;10335772;28;20221;-82
2021/01/17 17:53:27;;;;;;;24.93;21.03;;;3.80;99.90;;;;;;10393349;28;20221;-83
2021/01/17 17:58:30;;;;;;;20.43;18.33;;;3.80;99.90;;;;;;10380218;28;20737;-83
2021/01/17 18:03:32;;;;;;;17.20;15.40;;;3.80;99.90;;;;;;10349343;28;20206;-83
2021/01/17 18:08:34;;;;;;;19.40;17.07;;;3.80;99.90;;;;;;10400699;28;20218;-83
2021/01/17 18:13:39;;;;;;;18.37;16.53;;;3.90;99.90;;;;;;10391406;28;20217;-83
2021/01/17 18:19:00;;;;;;;21.40;19.30;;;3.90;99.90;;;;;;10429403;28;20815;-83
2021/01/17 18:24:02;;;;;;;21.27;19.17;;;3.90;99.90;;;;;;10388063;28;20213;-83
2021/01/17 18:29:06;;;;;;;16.93;15.43;;;3.90;99.90;;;;;;10369467;28;20226;-83
2021/01/17 18:34:07;;;;;;;17.10;15.40;;;3.90;99.90;;;;;;10388211;28;20202;-82
2021/01/17 18:39:09;;;;;;;13.00;11.80;;;3.80;99.90;;;;;;10379341;28;20218;-83
2021/01/17 18:44:12;;;;;;;12.27;11.17;;;3.90;99.90;;;;;;10343687;28;20206;-82
2021/01/17 18:49:14;;;;;;;13.47;12.20;;;3.90;99.90;;;;;;10355556;28;20223;-82
2021/01/17 18:54:17;;;;;;;11.70;10.70;;;3.90;99.90;;;;;;10346200;28;20210;-82
2021/01/17 18:59:19;;;;;;;13.33;12.13;;;3.90;99.90;;;;;;10362323;28;20703;-83
2021/01/17 19:04:27;;;;;;;14.87;13.43;;;4.00;99.90;;;;;;10362155;28;20213;-80
2021/01/17 19:09:29;;;;;;;15.20;13.70;;;4.00;99.90;;;;;;10354652;28;20325;-83
2021/01/17 19:14:35;;;;;;;12.33;11.13;;;4.00;99.90;;;;;;10380384;28;20233;-82
2021/01/17 19:19:42;;;;;;;12.10;11.10;;;4.00;99.90;;;;;;10372690;28;20283;-82
2021/01/17 19:24:47;;;;;;;13.00;11.90;;;4.00;99.90;;;;;;10349008;28;20346;-83
2021/01/17 19:30:00;;;;;;;13.70;12.50;;;4.00;99.90;;;;;;10370891;28;20827;-83
2021/01/17 19:35:08;;;;;;;15.63;14.23;;;4.00;99.90;;;;;;10383426;28;20712;-81
2021/01/17 19:40:11;;;;;;;19.33;17.50;;;4.00;99.90;;;;;;10377383;28;20217;-81
2021/01/17 19:45:29;;;;;;;16.23;14.63;;;4.00;99.90;;;;;;10353717;28;20643;-82
2021/01/17 19:50:31;;;;;;;16.63;15.03;;;3.90;99.90;;;;;;10398014;28;20202;-82
2021/01/17 19:55:33;;;;;;;14.50;13.10;;;3.90;99.90;;;;;;10375172;28;20285;-83
2021/01/17 20:00:36;;;;;;;13.63;12.37;;;3.80;99.90;;;;;;10340939;28;20218;-83
2021/01/17 20:05:37;;;;;;;12.70;11.50;;;3.90;99.90;;;;;;10362623;28;20198;-87
2021/01/17 20:10:39;;;;;;;12.87;11.63;;;3.90;99.90;;;;;;10365945;28;20293;-85
2021/01/17 20:15:42;;;;;;;13.53;12.23;;;3.90;99.90;;;;;;10359434;28;20607;-83
2021/01/17 20:20:43;;;;;;;13.10;11.83;;;3.80;99.90;;;;;;10380382;28;20208;-82
2021/01/17 20:25:49;;;;;;;17.37;14.20;;;3.80;99.90;;;;;;10366264;28;20237;-81
2021/01/17 20:30:51;;;;;;;13.33;11.70;;;3.80;99.90;;;;;;10350733;28;20782;-83
2021/01/17 20:35:53;;;;;;;13.67;12.17;;;3.80;99.90;;;;;;10342694;28;20322;-82
2021/01/17 20:41:03;;;;;;;9.67;8.87;;;3.80;99.90;;;;;;10388113;28;20698;-82
2021/01/17 20:46:06;;;;;;;9.90;9.00;;;3.80;99.90;;;;;;10351868;28;20920;-84
2021/01/17 20:51:12;;;;;;;9.07;8.37;;;3.80;99.90;;;;;;10366386;28;20265;-81
2021/01/17 20:56:15;;;;;;;10.67;9.67;;;3.80;99.90;;;;;;10365887;28;20601;-82
2021/01/17 21:01:20;;;;;;;10.53;9.60;;;3.80;99.90;;;;;;10392955;28;20589;-84
2021/01/17 21:06:22;;;;;;;9.30;8.40;;;3.80;99.90;;;;;;10373363;28;20234;-84
2021/01/17 21:11:23;;;;;;;8.30;7.60;;;3.90;99.90;;;;;;10373050;28;20198;-83
2021/01/17 21:16:37;;;;;;;9.77;8.97;;;3.90;99.90;;;;;;10318936;28;20251;-83
2021/01/17 21:21:39;;;;;;;9.37;8.40;;;3.90;99.90;;;;;;10339830;28;20226;-82
2021/01/17 21:26:40;;;;;;;8.20;7.60;;;3.90;99.90;;;;;;10351076;28;20253;-84
2021/01/17 21:31:43;;;;;;;8.83;7.90;;;3.90;99.90;;;;;;10332971;28;20213;-83
2021/01/17 21:36:44;;;;;;;8.70;8.00;;;3.90;99.90;;;;;;10362177;28;20338;-83
2021/01/17 21:41:46;;;;;;;9.40;8.20;;;3.90;99.90;;;;;;10377090;28;20276;-86
2021/01/17 21:46:49;;;;;;;8.60;7.90;;;3.90;99.90;;;;;;10325532;28;20223;-83
2021/01/17 21:51:56;;;;;;;9.53;8.70;;;3.90;99.90;;;;;;10366740;28;20198;-83
2021/01/17 21:57:13;;;;;;;9.60;8.80;;;3.90;99.90;;;;;;10343542;28;20313;-83
2021/01/17 22:07:58;;;;;;;10.07;9.20;;;4.10;99.90;;;;;;10348603;28;20250;-86
2021/01/17 22:12:59;;;;;;;9.90;9.00;;;4.00;99.90;;;;;;10360462;28;21045;-86
2021/01/17 22:18:02;;;;;;;10.10;9.20;;;4.00;99.90;;;;;;10358205;28;20233;-85
2021/01/17 22:23:04;;;;;;;9.10;8.20;;;4.10;99.90;;;;;;10384427;28;20197;-85
2021/01/17 22:28:06;;;;;;;10.97;10.07;;;4.10;99.90;;;;;;10394060;28;20804;-85
2021/01/17 22:33:08;;;;;;;10.27;9.37;;;4.00;99.90;;;;;;10378461;28;20301;-87
2021/01/17 22:38:10;;;;;;;9.67;8.83;;;4.10;99.90;;;;;;10363381;28;20870;-85
2021/01/17 22:43:12;;;;;;;9.57;8.73;;;4.10;99.90;;;;;;10391221;28;20583;-85
2021/01/17 22:48:14;;;;;;;10.03;9.03;;;4.10;99.90;;;;;;10381290;28;20213;-83
2021/01/17 22:53:16;;;;;;;9.40;8.67;;;4.10;99.90;;;;;;10337729;28;20579;-84
2021/01/17 22:58:18;;;;;;;9.00;8.10;;;4.10;99.90;;;;;;10326631;28;20317;-83
2021/01/17 23:03:20;;;;;;;9.00;8.20;;;4.10;99.90;;;;;;10356347;28;20230;-85
2021/01/17 23:08:22;;;;;;;9.77;8.90;;;4.10;99.90;;;;;;10363622;28;20257;-85
2021/01/17 23:13:23;;;;;;;8.70;7.90;;;4.00;99.90;;;;;;10371702;28;20209;-83
2021/01/17 23:18:26;;;;;;;8.03;7.43;;;4.00;99.90;;;;;;10394426;28;20326;-83
2021/01/17 23:23:28;;;;;;;9.30;8.20;;;4.00;99.90;;;;;;10393638;28;20678;-86
2021/01/17 23:28:29;;;;;;;8.50;7.90;;;4.00;99.90;;;;;;10377272;28;21043;-85
2021/01/17 23:33:32;;;;;;;7.77;7.03;;;3.90;99.90;;;;;;10378753;28;20224;-86
2021/01/17 23:38:34;;;;;;;8.80;7.93;;;3.90;99.90;;;;;;10374217;28;20238;-80
2021/01/17 23:43:35;;;;;;;7.93;7.33;;;3.90;99.90;;;;;;10374920;28;20213;-83
2021/01/17 23:48:38;;;;;;;8.83;8.13;;;3.80;99.90;;;;;;10396149;28;20697;-82
2021/01/17 23:53:40;;;;;;;9.07;8.37;;;3.80;99.90;;;;;;10372588;28;20220;-83
2021/01/17 23:58:41;;;;;;;10.70;9.70;;;3.80;99.90;;;;;;10389088;28;20291;-85
